Cratis — C6BV3 — position and weather

sailwx.info

Track history (hours):
 
Tides and Currents Weather Stations Pressure Air Temp Water Temp Dewpoint Dewpoint Depression Visibility Wind Speed Wind Dir Waves Ship Positions

Cratis

Last reported at 2017-Dec-08 17:18 UTC. Time now 2017-Dec-13 12:47 UTC.
Position N 37°07' W 001°13'.

Length 226 m; draft 8.2 m.

Type: Tanker. MMSI: 311000374.

Date/timePositionNaut miles runAvg speedWind from/ knotsBaromVisibWave heightAir tempDewpointWater temp
2017-Dec-08 17:18N 37°07' W 001°13'713.7
2017-Dec-08 16:47N 37°11' W 001°07'413.8
2017-Dec-08 16:30N 37°14' W 001°03'713.8
2017-Dec-08 16:00N 37°18' W 000°56'813.7
2017-Dec-08 15:27N 37°23' W 000°49'613.6
2017-Dec-08 15:00N 37°27' W 000°43'713.4
2017-Dec-08 14:30N 37°31' W 000°37'713.1
2017-Dec-08 14:00N 37°36' W 000°31'713.1
2017-Dec-08 13:30N 37°42' W 000°26'713.0
2017-Dec-08 13:00N 37°47' W 000°22'713.2
2017-Dec-08 12:30N 37°53' W 000°17'612.9
2017-Dec-08 12:00N 37°58' W 000°12'612.8
2017-Dec-08 11:30N 38°03' W 000°08'5214.8
2017-Dec-08 07:59N 38°48' E 000°27'  
2017-Dec-03 06:35N 37°34' W 000°59'1 4.6
2017-Dec-03 06:21N 37°33' W 001°00'2 5.1
2017-Dec-03 05:55N 37°32' W 000°58'1 0.3
2017-Dec-03 04:09N 37°32' W 000°59'1 2.7
2017-Dec-03 03:49N 37°32' W 000°60'22014.8
2017-Dec-02 12:56N 36°00' W 005°09'919.8
2017-Dec-02 12:30N 35°60' W 005°20'20812.1
2017-Dec-01 19:16N 37°33' W 009°12'416.5
2017-Dec-01 19:00N 37°36' W 009°09'816.6
2017-Dec-01 18:30N 37°43' W 009°03'815.8
2017-Dec-01 18:00N 37°50' W 008°57'612.9
2017-Dec-01 17:30N 37°55' W 008°53'2 3.7
2017-Dec-01 17:00N 37°57' W 008°53'0 0.0
2017-Dec-01 16:30N 37°57' W 008°53'0 0.0
2017-Dec-01 16:00N 37°57' W 008°53'0 0.0
2017-Dec-01 15:30N 37°57' W 008°53'0 0.0
2017-Dec-01 15:00N 37°57' W 008°53'0 0.0
2017-Dec-01 14:30N 37°57' W 008°53'0 0.0
2017-Dec-01 14:00N 37°57' W 008°53'0 0.0
2017-Dec-01 13:30N 37°57' W 008°53'0 0.0
2017-Dec-01 13:00N 37°57' W 008°53'0 0.0
2017-Dec-01 12:30N 37°57' W 008°53'0 0.0
2017-Dec-01 12:00N 37°57' W 008°53'0 0.0
2017-Dec-01 11:30N 37°57' W 008°53'0 0.0
2017-Dec-01 11:00N 37°57' W 008°53'0 0.0
2017-Dec-01 10:30N 37°57' W 008°53'0 0.0
2017-Dec-01 10:00N 37°57' W 008°53'0 0.0
2017-Dec-01 09:30N 37°57' W 008°53'0 0.0
2017-Dec-01 09:00N 37°57' W 008°53'0 0.0
2017-Dec-01 08:30N 37°57' W 008°53'0 0.0
2017-Dec-01 08:00N 37°57' W 008°53'0 0.0
2017-Dec-01 07:30N 37°57' W 008°53'0 0.0
2017-Dec-01 07:00N 37°57' W 008°53'0 0.0
2017-Dec-01 06:30N 37°57' W 008°53'0 0.0
2017-Dec-01 06:00N 37°57' W 008°53'0 0.0
2017-Dec-01 05:30N 37°57' W 008°53'0 0.0
2017-Dec-01 05:00N 37°57' W 008°53'0 0.0
2017-Dec-01 04:30N 37°57' W 008°53'0 0.0
2017-Dec-01 04:00N 37°57' W 008°53'0 0.0
2017-Dec-01 03:30N 37°57' W 008°53'0 0.0
2017-Dec-01 03:00N 37°57' W 008°53'0 0.0
2017-Dec-01 02:30N 37°57' W 008°53'0 0.0
2017-Dec-01 02:00N 37°57' W 008°53'0 0.0
2017-Dec-01 01:30N 37°57' W 008°53'0 0.0
2017-Dec-01 01:00N 37°57' W 008°53'0 0.1
2017-Dec-01 00:30N 37°57' W 008°53'2 3.3
2017-Dec-01 00:00N 37°55' W 008°53'1 2.6
2017-Nov-30 23:30N 37°54' W 008°53'0 0.9
2017-Nov-30 23:00N 37°54' W 008°53'0 1.0
2017-Nov-30 22:29N 37°53' W 008°52'0 0.1
2017-Nov-30 21:59N 37°53' W 008°52'0 0.0
2017-Nov-30 21:29N 37°53' W 008°52'0 0.0
2017-Nov-30 20:59N 37°53' W 008°52'0 0.0
2017-Nov-30 20:29N 37°53' W 008°52'0 0.0
2017-Nov-30 19:59N 37°53' W 008°52'0 0.0
2017-Nov-30 19:29N 37°53' W 008°52'0 0.0
2017-Nov-30 18:59N 37°53' W 008°52'0 0.0
2017-Nov-30 18:29N 37°53' W 008°52'0 0.0
2017-Nov-30 17:59N 37°53' W 008°52'0 0.0
2017-Nov-30 17:29N 37°53' W 008°52'0 0.0
2017-Nov-30 16:59N 37°53' W 008°52'0 0.1
2017-Nov-30 16:29N 37°53' W 008°52'0 0.0
2017-Nov-30 15:59N 37°53' W 008°52'0 0.1
2017-Nov-30 15:29N 37°53' W 008°52'0 0.1
2017-Nov-30 14:59N 37°53' W 008°52'0 0.1
2017-Nov-30 14:26N 37°53' W 008°52'0 0.0
2017-Nov-30 13:59N 37°53' W 008°52'0 0.0
2017-Nov-30 13:29N 37°53' W 008°52'0 0.1
2017-Nov-30 12:59N 37°53' W 008°52'0 0.1
2017-Nov-30 12:29N 37°53' W 008°52'0 0.0
2017-Nov-30 11:59N 37°53' W 008°52'0 0.0
2017-Nov-30 11:26N 37°53' W 008°52'0 0.0
2017-Nov-30 10:59N 37°53' W 008°52'0 0.0
2017-Nov-30 10:29N 37°53' W 008°52'0 0.1
2017-Nov-30 09:59N 37°53' W 008°52'0 0.0
2017-Nov-30 09:29N 37°53' W 008°52'0 0.0
2017-Nov-30 08:59N 37°53' W 008°52'0 0.1
2017-Nov-30 08:29N 37°53' W 008°52'0 0.1
2017-Nov-30 07:59N 37°53' W 008°52'0 0.1
2017-Nov-30 07:29N 37°53' W 008°52'0 0.0
2017-Nov-30 06:59N 37°53' W 008°52'0 0.0
2017-Nov-30 06:29N 37°53' W 008°52'0 0.0
2017-Nov-30 05:59N 37°53' W 008°52'0 0.0
2017-Nov-30 05:29N 37°53' W 008°52'0 0.0
2017-Nov-30 04:59N 37°53' W 008°52'0 0.0
2017-Nov-30 04:29N 37°53' W 008°52'0 0.0
2017-Nov-30 03:59N 37°53' W 008°52'0 0.0
2017-Nov-30 03:29N 37°53' W 008°52'0 0.1
2017-Nov-30 02:59N 37°53' W 008°52'0 0.1
2017-Nov-30 02:29N 37°53' W 008°52'0 0.0
2017-Nov-30 01:59N 37°53' W 008°52'0 0.1
2017-Nov-30 01:29N 37°53' W 008°52'0 0.1
2017-Nov-30 00:59N 37°53' W 008°52'0 0.0
2017-Nov-30 00:29N 37°53' W 008°52'0 0.0
2017-Nov-29 23:59N 37°53' W 008°52'0 0.0
2017-Nov-29 23:29N 37°53' W 008°52'0 0.0
2017-Nov-29 22:59N 37°53' W 008°52'0 0.1
2017-Nov-29 22:29N 37°53' W 008°52'0 0.1
2017-Nov-29 21:59N 37°53' W 008°52'0 0.1
2017-Nov-29 21:29N 37°53' W 008°52'0 0.1
2017-Nov-29 20:59N 37°53' W 008°52'0 0.0
2017-Nov-29 20:29N 37°53' W 008°52'0 0.0
2017-Nov-29 19:53N 37°53' W 008°52'0 0.0
2017-Nov-29 19:29N 37°53' W 008°52'0 0.1
2017-Nov-29 18:59N 37°53' W 008°52'0 0.1
2017-Nov-29 18:29N 37°53' W 008°52'0 0.0
2017-Nov-29 17:59N 37°53' W 008°52'0 0.1
2017-Nov-29 17:29N 37°53' W 008°52'0 0.0
2017-Nov-29 16:56N 37°53' W 008°52'0 0.1
2017-Nov-29 16:29N 37°53' W 008°52'0 0.1
2017-Nov-29 15:59N 37°53' W 008°52'0 0.1
2017-Nov-29 15:29N 37°53' W 008°52'0 0.1
2017-Nov-29 14:59N 37°53' W 008°52'0 0.1
2017-Nov-29 14:29N 37°53' W 008°52'0 0.1
2017-Nov-29 13:59N 37°53' W 008°52'0 0.1
2017-Nov-29 13:29N 37°53' W 008°52'0 0.1
2017-Nov-29 12:59N 37°53' W 008°52'0 0.0
2017-Nov-29 12:29N 37°53' W 008°52'0 0.1
2017-Nov-29 11:59N 37°53' W 008°52'0 0.0
2017-Nov-29 11:29N 37°53' W 008°52'0 0.0
2017-Nov-29 10:59N 37°53' W 008°52'0 0.0
2017-Nov-29 10:29N 37°53' W 008°52'0 0.1
2017-Nov-29 09:59N 37°53' W 008°52'0 0.0
2017-Nov-29 09:29N 37°53' W 008°52'0 0.0
2017-Nov-29 08:59N 37°53' W 008°52'0 0.0
2017-Nov-29 08:29N 37°53' W 008°52'0 0.0
2017-Nov-29 07:59N 37°53' W 008°52'0 0.0
2017-Nov-29 07:29N 37°53' W 008°52'0 0.0
2017-Nov-29 06:59N 37°53' W 008°52'0 0.0
2017-Nov-29 06:29N 37°53' W 008°52'0 0.1
2017-Nov-29 05:59N 37°53' W 008°52'0 0.0
2017-Nov-29 05:29N 37°53' W 008°52'0 0.0
2017-Nov-29 04:59N 37°53' W 008°52'0 0.0
2017-Nov-29 04:29N 37°53' W 008°52'0 0.0
2017-Nov-29 03:59N 37°53' W 008°52'0 0.2
2017-Nov-29 03:29N 37°53' W 008°52'0 0.2
2017-Nov-29 02:59N 37°53' W 008°52'0 0.1
2017-Nov-29 02:29N 37°53' W 008°52'0 0.0
2017-Nov-29 01:59N 37°53' W 008°52'0 0.0
2017-Nov-29 01:29N 37°53' W 008°52'0 0.1
2017-Nov-29 00:59N 37°53' W 008°52'0 0.0
2017-Nov-29 00:29N 37°53' W 008°52'0 0.0
2017-Nov-28 23:59N 37°53' W 008°52'0 0.0
2017-Nov-28 23:29N 37°53' W 008°52'0 0.0
2017-Nov-28 22:59N 37°53' W 008°52'0 0.0
2017-Nov-28 22:29N 37°53' W 008°52'0 0.0
2017-Nov-28 21:59N 37°53' W 008°52'0 0.0
2017-Nov-28 21:29N 37°53' W 008°52'0 0.0
2017-Nov-28 20:59N 37°53' W 008°52'0 0.0
2017-Nov-28 20:29N 37°53' W 008°52'0 0.0
2017-Nov-28 19:59N 37°53' W 008°52'0 0.0
2017-Nov-28 19:29N 37°53' W 008°52'0 0.0
2017-Nov-28 18:59N 37°53' W 008°52'0 0.0
2017-Nov-28 18:29N 37°54' W 008°52'0 0.0
2017-Nov-28 17:59N 37°54' W 008°52'0 0.1
2017-Nov-28 17:29N 37°54' W 008°52'  
Track history (hours):
 
Tides and Currents Weather Stations Pressure Air Temp Water Temp Dewpoint Dewpoint Depression Visibility Wind Speed Wind Dir Waves Ship Positions

Cratis

Last reported at 2017-Dec-08 17:18 UTC. Time now 2017-Dec-13 12:47 UTC.
Position N 37°07' W 001°13'.

Length 226 m; draft 8.2 m.

Type: Tanker. MMSI: 311000374.

Date/timePositionNaut miles runAvg speedWind from/ knotsBaromVisibWave heightAir tempDewpointWater temp
2017-Dec-08 17:18N 37°07' W 001°13'713.7
2017-Dec-08 16:47N 37°11' W 001°07'413.8
2017-Dec-08 16:30N 37°14' W 001°03'713.8
2017-Dec-08 16:00N 37°18' W 000°56'813.7
2017-Dec-08 15:27N 37°23' W 000°49'613.6
2017-Dec-08 15:00N 37°27' W 000°43'713.4
2017-Dec-08 14:30N 37°31' W 000°37'713.1
2017-Dec-08 14:00N 37°36' W 000°31'713.1
2017-Dec-08 13:30N 37°42' W 000°26'713.0
2017-Dec-08 13:00N 37°47' W 000°22'713.2
2017-Dec-08 12:30N 37°53' W 000°17'612.9
2017-Dec-08 12:00N 37°58' W 000°12'612.8
2017-Dec-08 11:30N 38°03' W 000°08'5214.8
2017-Dec-08 07:59N 38°48' E 000°27'  
2017-Dec-03 06:35N 37°34' W 000°59'1 4.6
2017-Dec-03 06:21N 37°33' W 001°00'2 5.1
2017-Dec-03 05:55N 37°32' W 000°58'1 0.3
2017-Dec-03 04:09N 37°32' W 000°59'1 2.7
2017-Dec-03 03:49N 37°32' W 000°60'22014.8
2017-Dec-02 12:56N 36°00' W 005°09'919.8
2017-Dec-02 12:30N 35°60' W 005°20'20812.1
2017-Dec-01 19:16N 37°33' W 009°12'416.5
2017-Dec-01 19:00N 37°36' W 009°09'816.6
2017-Dec-01 18:30N 37°43' W 009°03'815.8
2017-Dec-01 18:00N 37°50' W 008°57'612.9
2017-Dec-01 17:30N 37°55' W 008°53'2 3.7
2017-Dec-01 17:00N 37°57' W 008°53'0 0.0
2017-Dec-01 16:30N 37°57' W 008°53'0 0.0
2017-Dec-01 16:00N 37°57' W 008°53'0 0.0
2017-Dec-01 15:30N 37°57' W 008°53'0 0.0
2017-Dec-01 15:00N 37°57' W 008°53'0 0.0
2017-Dec-01 14:30N 37°57' W 008°53'0 0.0
2017-Dec-01 14:00N 37°57' W 008°53'0 0.0
2017-Dec-01 13:30N 37°57' W 008°53'0 0.0
2017-Dec-01 13:00N 37°57' W 008°53'0 0.0
2017-Dec-01 12:30N 37°57' W 008°53'0 0.0
2017-Dec-01 12:00N 37°57' W 008°53'0 0.0
2017-Dec-01 11:30N 37°57' W 008°53'0 0.0
2017-Dec-01 11:00N 37°57' W 008°53'0 0.0
2017-Dec-01 10:30N 37°57' W 008°53'0 0.0
2017-Dec-01 10:00N 37°57' W 008°53'0 0.0
2017-Dec-01 09:30N 37°57' W 008°53'0 0.0
2017-Dec-01 09:00N 37°57' W 008°53'0 0.0
2017-Dec-01 08:30N 37°57' W 008°53'0 0.0
2017-Dec-01 08:00N 37°57' W 008°53'0 0.0
2017-Dec-01 07:30N 37°57' W 008°53'0 0.0
2017-Dec-01 07:00N 37°57' W 008°53'0 0.0
2017-Dec-01 06:30N 37°57' W 008°53'0 0.0
2017-Dec-01 06:00N 37°57' W 008°53'0 0.0
2017-Dec-01 05:30N 37°57' W 008°53'0 0.0
2017-Dec-01 05:00N 37°57' W 008°53'0 0.0
2017-Dec-01 04:30N 37°57' W 008°53'0 0.0
2017-Dec-01 04:00N 37°57' W 008°53'0 0.0
2017-Dec-01 03:30N 37°57' W 008°53'0 0.0
2017-Dec-01 03:00N 37°57' W 008°53'0 0.0
2017-Dec-01 02:30N 37°57' W 008°53'0 0.0
2017-Dec-01 02:00N 37°57' W 008°53'0 0.0
2017-Dec-01 01:30N 37°57' W 008°53'0 0.0
2017-Dec-01 01:00N 37°57' W 008°53'0 0.1
2017-Dec-01 00:30N 37°57' W 008°53'2 3.3
2017-Dec-01 00:00N 37°55' W 008°53'1 2.6
2017-Nov-30 23:30N 37°54' W 008°53'0 0.9
2017-Nov-30 23:00N 37°54' W 008°53'0 1.0
2017-Nov-30 22:29N 37°53' W 008°52'0 0.1
2017-Nov-30 21:59N 37°53' W 008°52'0 0.0
2017-Nov-30 21:29N 37°53' W 008°52'0 0.0
2017-Nov-30 20:59N 37°53' W 008°52'0 0.0
2017-Nov-30 20:29N 37°53' W 008°52'0 0.0
2017-Nov-30 19:59N 37°53' W 008°52'0 0.0
2017-Nov-30 19:29N 37°53' W 008°52'0 0.0
2017-Nov-30 18:59N 37°53' W 008°52'0 0.0
2017-Nov-30 18:29N 37°53' W 008°52'0 0.0
2017-Nov-30 17:59N 37°53' W 008°52'0 0.0
2017-Nov-30 17:29N 37°53' W 008°52'0 0.0
2017-Nov-30 16:59N 37°53' W 008°52'0 0.1
2017-Nov-30 16:29N 37°53' W 008°52'0 0.0
2017-Nov-30 15:59N 37°53' W 008°52'0 0.1
2017-Nov-30 15:29N 37°53' W 008°52'0 0.1
2017-Nov-30 14:59N 37°53' W 008°52'0 0.1
2017-Nov-30 14:26N 37°53' W 008°52'0 0.0
2017-Nov-30 13:59N 37°53' W 008°52'0 0.0
2017-Nov-30 13:29N 37°53' W 008°52'0 0.1
2017-Nov-30 12:59N 37°53' W 008°52'0 0.1
2017-Nov-30 12:29N 37°53' W 008°52'0 0.0
2017-Nov-30 11:59N 37°53' W 008°52'0 0.0
2017-Nov-30 11:26N 37°53' W 008°52'0 0.0
2017-Nov-30 10:59N 37°53' W 008°52'0 0.0
2017-Nov-30 10:29N 37°53' W 008°52'0 0.1
2017-Nov-30 09:59N 37°53' W 008°52'0 0.0
2017-Nov-30 09:29N 37°53' W 008°52'0 0.0
2017-Nov-30 08:59N 37°53' W 008°52'0 0.1
2017-Nov-30 08:29N 37°53' W 008°52'0 0.1
2017-Nov-30 07:59N 37°53' W 008°52'0 0.1
2017-Nov-30 07:29N 37°53' W 008°52'0 0.0
2017-Nov-30 06:59N 37°53' W 008°52'0 0.0
2017-Nov-30 06:29N 37°53' W 008°52'0 0.0
2017-Nov-30 05:59N 37°53' W 008°52'0 0.0
2017-Nov-30 05:29N 37°53' W 008°52'0 0.0
2017-Nov-30 04:59N 37°53' W 008°52'0 0.0
2017-Nov-30 04:29N 37°53' W 008°52'0 0.0
2017-Nov-30 03:59N 37°53' W 008°52'0 0.0
2017-Nov-30 03:29N 37°53' W 008°52'0 0.1
2017-Nov-30 02:59N 37°53' W 008°52'0 0.1
2017-Nov-30 02:29N 37°53' W 008°52'0 0.0
2017-Nov-30 01:59N 37°53' W 008°52'0 0.1
2017-Nov-30 01:29N 37°53' W 008°52'0 0.1
2017-Nov-30 00:59N 37°53' W 008°52'0 0.0
2017-Nov-30 00:29N 37°53' W 008°52'0 0.0
2017-Nov-29 23:59N 37°53' W 008°52'0 0.0
2017-Nov-29 23:29N 37°53' W 008°52'0 0.0
2017-Nov-29 22:59N 37°53' W 008°52'0 0.1
2017-Nov-29 22:29N 37°53' W 008°52'0 0.1
2017-Nov-29 21:59N 37°53' W 008°52'0 0.1
2017-Nov-29 21:29N 37°53' W 008°52'0 0.1
2017-Nov-29 20:59N 37°53' W 008°52'0 0.0
2017-Nov-29 20:29N 37°53' W 008°52'0 0.0
2017-Nov-29 19:53N 37°53' W 008°52'0 0.0
2017-Nov-29 19:29N 37°53' W 008°52'0 0.1
2017-Nov-29 18:59N 37°53' W 008°52'0 0.1
2017-Nov-29 18:29N 37°53' W 008°52'0 0.0
2017-Nov-29 17:59N 37°53' W 008°52'0 0.1
2017-Nov-29 17:29N 37°53' W 008°52'0 0.0
2017-Nov-29 16:56N 37°53' W 008°52'0 0.1
2017-Nov-29 16:29N 37°53' W 008°52'0 0.1
2017-Nov-29 15:59N 37°53' W 008°52'0 0.1
2017-Nov-29 15:29N 37°53' W 008°52'0 0.1
2017-Nov-29 14:59N 37°53' W 008°52'0 0.1
2017-Nov-29 14:29N 37°53' W 008°52'0 0.1
2017-Nov-29 13:59N 37°53' W 008°52'0 0.1
2017-Nov-29 13:29N 37°53' W 008°52'0 0.1
2017-Nov-29 12:59N 37°53' W 008°52'0 0.0
2017-Nov-29 12:29N 37°53' W 008°52'0 0.1
2017-Nov-29 11:59N 37°53' W 008°52'0 0.0
2017-Nov-29 11:29N 37°53' W 008°52'0 0.0
2017-Nov-29 10:59N 37°53' W 008°52'0 0.0
2017-Nov-29 10:29N 37°53' W 008°52'0 0.1
2017-Nov-29 09:59N 37°53' W 008°52'0 0.0
2017-Nov-29 09:29N 37°53' W 008°52'0 0.0
2017-Nov-29 08:59N 37°53' W 008°52'0 0.0
2017-Nov-29 08:29N 37°53' W 008°52'0 0.0
2017-Nov-29 07:59N 37°53' W 008°52'0 0.0
2017-Nov-29 07:29N 37°53' W 008°52'0 0.0
2017-Nov-29 06:59N 37°53' W 008°52'0 0.0
2017-Nov-29 06:29N 37°53' W 008°52'0 0.1
2017-Nov-29 05:59N 37°53' W 008°52'0 0.0
2017-Nov-29 05:29N 37°53' W 008°52'0 0.0
2017-Nov-29 04:59N 37°53' W 008°52'0 0.0
2017-Nov-29 04:29N 37°53' W 008°52'0 0.0
2017-Nov-29 03:59N 37°53' W 008°52'0 0.2
2017-Nov-29 03:29N 37°53' W 008°52'0 0.2
2017-Nov-29 02:59N 37°53' W 008°52'0 0.1
2017-Nov-29 02:29N 37°53' W 008°52'0 0.0
2017-Nov-29 01:59N 37°53' W 008°52'0 0.0
2017-Nov-29 01:29N 37°53' W 008°52'0 0.1
2017-Nov-29 00:59N 37°53' W 008°52'0 0.0
2017-Nov-29 00:29N 37°53' W 008°52'0 0.0
2017-Nov-28 23:59N 37°53' W 008°52'0 0.0
2017-Nov-28 23:29N 37°53' W 008°52'0 0.0
2017-Nov-28 22:59N 37°53' W 008°52'0 0.0
2017-Nov-28 22:29N 37°53' W 008°52'0 0.0
2017-Nov-28 21:59N 37°53' W 008°52'0 0.0
2017-Nov-28 21:29N 37°53' W 008°52'0 0.0
2017-Nov-28 20:59N 37°53' W 008°52'0 0.0
2017-Nov-28 20:29N 37°53' W 008°52'0 0.0
2017-Nov-28 19:59N 37°53' W 008°52'0 0.0
2017-Nov-28 19:29N 37°53' W 008°52'0 0.0
2017-Nov-28 18:59N 37°53' W 008°52'0 0.0
2017-Nov-28 18:29N 37°54' W 008°52'0 0.0
2017-Nov-28 17:59N 37°54' W 008°52'0 0.1
2017-Nov-28 17:29N 37°54' W 008°52'  

Dump ship's entire track history